Time;durP1;ratioP1;P1;durP2;ratioP2;P2;SDS_P1;SDS_P2;PMS_P1;PMS_P2;Temp;Humidity;BMP_temperature;BMP_pressure;BME280_temperature;BME280_humidity;BME280_pressure;Samples;Min_cycle;Max_cycle;Signal;HPM_P1;HPM_P2
2022/05/21 00:00:20;;;;;;;8.32;4.25;;;14.50;99.90;;;;;;4949822;28;20038;-83
2022/05/21 00:02:46;;;;;;;6.07;4.30;;;14.70;99.90;;;;;;4953600;28;20427;-83
2022/05/21 00:05:12;;;;;;;7.50;3.92;;;14.60;99.90;;;;;;4950839;28;20035;-83
2022/05/21 00:07:37;;;;;;;7.55;2.70;;;14.60;99.90;;;;;;4968268;28;20045;-84
2022/05/21 00:10:05;;;;;;;5.20;3.80;;;14.30;99.90;;;;;;4947044;28;20077;-83
2022/05/21 00:12:30;;;;;;;6.85;3.50;;;14.40;99.90;;;;;;4953257;28;20062;-83
2022/05/21 00:14:57;;;;;;;7.13;3.85;;;14.30;99.90;;;;;;4948492;28;20433;-84
2022/05/21 00:17:22;;;;;;;7.30;5.25;;;14.30;99.90;;;;;;4963826;28;20035;-83
2022/05/21 00:19:48;;;;;;;9.20;6.78;;;14.40;99.90;;;;;;4952090;28;20401;-83
2022/05/21 00:22:13;;;;;;;8.70;4.65;;;14.30;99.90;;;;;;4962536;28;20030;-83
2022/05/21 00:24:39;;;;;;;6.50;5.00;;;14.20;99.90;;;;;;4950162;28;20022;-83
2022/05/21 00:27:05;;;;;;;5.95;4.57;;;14.20;99.90;;;;;;4950309;28;20117;-83
2022/05/21 00:29:31;;;;;;;8.48;4.95;;;14.30;99.90;;;;;;4977758;28;20110;-84
2022/05/21 00:31:56;;;;;;;7.93;5.40;;;14.20;99.90;;;;;;4966180;28;20026;-83
2022/05/21 00:34:22;;;;;;;6.38;3.67;;;14.00;99.90;;;;;;4963395;28;20444;-83
2022/05/21 00:36:47;;;;;;;6.47;4.60;;;14.10;99.90;;;;;;4981096;28;20027;-84
2022/05/21 00:39:13;;;;;;;8.95;5.32;;;14.00;99.90;;;;;;4947372;28;20374;-83
2022/05/21 00:41:39;;;;;;;9.18;6.15;;;14.00;99.90;;;;;;4952783;28;20059;-82
2022/05/21 00:44:04;;;;;;;7.70;5.15;;;14.00;99.90;;;;;;4954283;28;20030;-82
2022/05/21 00:46:32;;;;;;;8.48;5.45;;;14.00;99.90;;;;;;4950915;28;20053;-82
2022/05/21 00:48:58;;;;;;;7.60;5.35;;;14.00;99.90;;;;;;4946602;28;20046;-83
2022/05/21 00:51:27;;;;;;;6.88;5.80;;;14.00;99.90;;;;;;4962963;28;20042;-83
2022/05/21 00:53:53;;;;;;;8.82;5.80;;;13.90;99.90;;;;;;4965027;28;20061;-82
2022/05/21 00:56:19;;;;;;;10.23;6.53;;;13.80;99.90;;;;;;4963409;28;20030;-82
2022/05/21 01:01:30;;;;;;;8.07;5.75;;;13.60;99.90;;;;;;4959679;28;20042;-82
2022/05/21 01:03:55;;;;;;;7.70;5.82;;;13.60;99.90;;;;;;4948347;28;20070;-83
2022/05/21 01:06:21;;;;;;;7.57;6.65;;;13.60;99.90;;;;;;4962481;28;20417;-83
2022/05/21 01:08:47;;;;;;;7.45;5.65;;;13.50;99.90;;;;;;4963911;28;20402;-82
2022/05/21 01:11:14;;;;;;;8.93;6.22;;;13.50;99.90;;;;;;4947386;28;20045;-83
2022/05/21 01:13:42;;;;;;;6.97;5.05;;;13.50;99.90;;;;;;4961181;28;20031;-82
2022/05/21 01:16:08;;;;;;;10.60;6.32;;;13.50;99.90;;;;;;4951019;28;20034;-83
2022/05/21 01:18:34;;;;;;;11.52;7.03;;;13.40;99.90;;;;;;4962458;28;20042;-82
2022/05/21 01:21:00;;;;;;;9.73;5.30;;;13.50;99.90;;;;;;4959973;28;20027;-82
2022/05/21 01:23:26;;;;;;;8.73;5.05;;;13.30;99.90;;;;;;4961884;28;20470;-82
2022/05/21 01:25:52;;;;;;;7.03;5.15;;;13.20;99.90;;;;;;4947753;28;20034;-82
2022/05/21 01:28:20;;;;;;;5.88;3.83;;;13.30;99.90;;;;;;4950699;28;20026;-82
2022/05/21 01:30:54;;;;;;;8.45;5.38;;;13.20;99.90;;;;;;4946883;28;20035;-82
2022/05/21 01:33:22;;;;;;;9.15;4.78;;;13.20;99.90;;;;;;4949159;28;20030;-82
2022/05/21 01:35:48;;;;;;;5.35;4.28;;;13.20;99.90;;;;;;4964474;28;20041;-82
2022/05/21 01:38:15;;;;;;;8.23;4.80;;;13.10;99.90;;;;;;4945934;28;20023;-82
2022/05/21 01:40:41;;;;;;;8.02;3.58;;;12.90;99.90;;;;;;4948061;28;20747;-82
2022/05/21 01:45:52;;;;;;;6.70;4.13;;;13.10;99.90;;;;;;4962478;28;20134;-82
2022/05/21 01:48:22;;;;;;;6.03;4.70;;;13.10;99.90;;;;;;4960159;28;20062;-82
2022/05/21 01:50:48;;;;;;;9.30;5.00;;;13.10;99.90;;;;;;4966395;28;20058;-82
2022/05/21 01:53:15;;;;;;;6.47;2.78;;;13.10;99.90;;;;;;4965902;28;20034;-82
2022/05/21 01:55:42;;;;;;;6.30;5.03;;;13.00;99.90;;;;;;4947592;28;20035;-82
2022/05/21 01:58:08;;;;;;;8.30;4.88;;;13.00;99.90;;;;;;4960994;28;20034;-82
2022/05/21 02:00:34;;;;;;;7.63;4.25;;;12.70;99.90;;;;;;4959281;28;20030;-82
2022/05/21 02:02:59;;;;;;;6.35;4.47;;;12.90;99.90;;;;;;4971400;28;20049;-83
2022/05/21 02:05:25;;;;;;;5.70;3.58;;;13.10;99.90;;;;;;4973687;28;20141;-83
2022/05/21 02:07:50;;;;;;;9.82;3.90;;;13.10;99.90;;;;;;4961259;28;20117;-83
2022/05/21 02:10:16;;;;;;;5.93;3.70;;;13.20;99.90;;;;;;4959086;28;20058;-83
2022/05/21 02:12:41;;;;;;;7.10;3.35;;;13.00;99.90;;;;;;4975025;28;20069;-83
2022/05/21 02:15:07;;;;;;;6.63;2.97;;;13.00;99.90;;;;;;4946265;28;20039;-83
2022/05/21 02:17:33;;;;;;;5.07;3.25;;;13.00;99.90;;;;;;4963262;28;20485;-84
2022/05/21 02:20:00;;;;;;;7.15;4.63;;;13.00;99.90;;;;;;4965855;28;20080;-83
2022/05/21 02:22:27;;;;;;;5.47;3.28;;;13.10;99.90;;;;;;4959174;28;20034;-83
2022/05/21 02:24:52;;;;;;;3.85;2.90;;;13.00;99.90;;;;;;4945674;28;20042;-83
2022/05/21 02:27:18;;;;;;;4.68;3.05;;;13.10;99.90;;;;;;4949478;28;20023;-83
2022/05/21 02:29:44;;;;;;;4.80;3.00;;;13.00;99.90;;;;;;4948551;28;20039;-83
2022/05/21 02:32:11;;;;;;;5.72;2.42;;;13.10;99.90;;;;;;4941751;28;20486;-82
2022/05/21 02:34:36;;;;;;;5.97;3.70;;;13.10;99.90;;;;;;4962585;28;20039;-82
2022/05/21 02:39:47;;;;;;;7.82;3.30;;;13.10;99.90;;;;;;4963694;28;20057;-82
2022/05/21 02:44:56;;;;;;;5.25;2.92;;;13.10;99.90;;;;;;4961439;28;20066;-82
2022/05/21 02:47:23;;;;;;;6.20;3.08;;;13.20;99.90;;;;;;4948621;28;20417;-82
2022/05/21 02:49:48;;;;;;;10.13;3.63;;;13.10;99.90;;;;;;4947672;28;20130;-82
2022/05/21 02:52:15;;;;;;;5.95;3.45;;;13.10;99.90;;;;;;4949737;28;20113;-82
2022/05/21 02:54:41;;;;;;;6.40;2.50;;;13.10;99.90;;;;;;4950215;28;20045;-82
2022/05/21 02:57:09;;;;;;;4.47;2.65;;;13.20;99.90;;;;;;4960606;28;20077;-82
2022/05/21 02:59:34;;;;;;;5.70;2.67;;;14.00;99.90;;;;;;4943451;28;20378;-82
2022/05/21 03:02:00;;;;;;;7.13;3.47;;;13.40;99.90;;;;;;4961745;28;20034;-82
2022/05/21 03:04:25;;;;;;;3.80;2.05;;;13.20;99.90;;;;;;4950372;28;20034;-82
2022/05/21 03:06:51;;;;;;;6.10;3.22;;;13.00;99.90;;;;;;4960669;28;20458;-82
2022/05/21 03:12:00;;;;;;;6.00;3.47;;;13.20;99.90;;;;;;4965892;28;20037;-82
2022/05/21 03:14:26;;;;;;;5.95;2.42;;;13.20;99.90;;;;;;4953419;28;20031;-82
2022/05/21 03:16:56;;;;;;;8.00;3.13;;;13.20;99.90;;;;;;4951285;28;20050;-82
2022/05/21 03:19:22;;;;;;;2.50;1.73;;;13.20;99.90;;;;;;4938539;28;20027;-82
2022/05/21 03:21:47;;;;;;;4.97;2.60;;;13.30;99.90;;;;;;4965109;28;20038;-82
2022/05/21 03:24:13;;;;;;;7.50;3.00;;;13.20;99.90;;;;;;4961611;28;20310;-82
2022/05/21 03:26:39;;;;;;;11.98;5.43;;;13.20;99.90;;;;;;4963095;28;20430;-82
2022/05/21 03:29:04;;;;;;;9.05;4.20;;;13.20;99.90;;;;;;4967305;28;20027;-82
2022/05/21 03:31:30;;;;;;;5.85;3.58;;;13.20;99.90;;;;;;4963051;28;20035;-82
2022/05/21 03:33:55;;;;;;;14.43;5.85;;;13.20;99.90;;;;;;4948458;28;20058;-82
2022/05/21 03:36:22;;;;;;;4.43;2.80;;;13.20;99.90;;;;;;4975694;28;20041;-83
2022/05/21 03:38:49;;;;;;;6.90;5.32;;;12.90;99.90;;;;;;4949084;28;20061;-82
2022/05/21 03:41:14;;;;;;;8.68;4.22;;;13.20;99.90;;;;;;4950012;28;20042;-82
2022/05/21 03:43:40;;;;;;;7.32;4.07;;;13.20;99.90;;;;;;4952405;28;20116;-82
2022/05/21 03:46:06;;;;;;;10.52;5.03;;;13.10;99.90;;;;;;4950264;28;20030;-82
2022/05/21 03:48:31;;;;;;;4.65;2.70;;;13.20;99.90;;;;;;4963834;28;20080;-82
2022/05/21 03:50:57;;;;;;;4.55;3.22;;;13.00;99.90;;;;;;4949122;28;20506;-82
2022/05/21 03:53:22;;;;;;;11.88;5.72;;;13.20;99.90;;;;;;4950288;28;20034;-82
2022/05/21 03:55:48;;;;;;;14.73;5.35;;;13.20;99.90;;;;;;4952502;28;20034;-82
2022/05/21 03:58:15;;;;;;;11.57;5.65;;;13.20;99.90;;;;;;4965112;28;20038;-82
2022/05/21 04:00:41;;;;;;;6.78;4.75;;;13.20;99.90;;;;;;4965729;28;20031;-83
2022/05/21 04:03:06;;;;;;;11.88;5.03;;;13.30;99.90;;;;;;4946280;28;20053;-82
2022/05/21 04:05:32;;;;;;;7.82;4.55;;;13.20;99.90;;;;;;4946997;28;20045;-83
2022/05/21 04:07:57;;;;;;;8.32;4.82;;;13.30;99.90;;;;;;4950693;28;20042;-83
2022/05/21 04:10:23;;;;;;;9.15;5.88;;;13.40;99.90;;;;;;4963163;28;20038;-82
2022/05/21 04:12:48;;;;;;;9.02;4.80;;;13.40;99.90;;;;;;4951445;28;20085;-82
2022/05/21 04:15:14;;;;;;;11.23;5.72;;;12.90;99.90;;;;;;4950410;28;20056;-83
2022/05/21 04:17:40;;;;;;;8.60;4.95;;;13.30;99.90;;;;;;4960035;28;20038;-83
2022/05/21 04:20:07;;;;;;;9.07;5.50;;;13.40;99.90;;;;;;4949357;28;20034;-82
2022/05/21 04:22:33;;;;;;;9.35;4.78;;;13.50;99.90;;;;;;4976860;28;20027;-82
2022/05/21 04:24:58;;;;;;;10.23;4.75;;;13.70;99.90;;;;;;4979915;28;20098;-82
2022/05/21 04:27:24;;;;;;;9.00;4.80;;;13.40;99.90;;;;;;4951356;28;20132;-83
2022/05/21 04:29:49;;;;;;;8.73;4.22;;;13.50;99.90;;;;;;4963714;28;20147;-82
2022/05/21 04:32:15;;;;;;;9.13;4.00;;;13.40;99.90;;;;;;4948184;28;20050;-84
2022/05/21 04:34:41;;;;;;;9.18;4.93;;;13.70;99.90;;;;;;4943667;28;20092;-82
2022/05/21 04:37:06;;;;;;;7.38;3.88;;;13.30;99.90;;;;;;4942886;28;20541;-82
2022/05/21 04:39:32;;;;;;;10.10;5.32;;;14.00;99.90;;;;;;4954674;28;20501;-82
2022/05/21 04:42:00;;;;;;;11.82;6.15;;;13.30;99.90;;;;;;4950544;28;20046;-82
2022/05/21 04:44:30;;;;;;;4.95;2.75;;;13.30;99.90;;;;;;4950688;28;20504;-82
2022/05/21 04:46:58;;;;;;;10.15;4.47;;;13.30;99.90;;;;;;4962371;28;20335;-83
2022/05/21 04:49:23;;;;;;;13.98;5.40;;;13.70;99.90;;;;;;4949814;28;20066;-82
2022/05/21 04:51:49;;;;;;;9.73;6.00;;;13.30;99.90;;;;;;4947432;28;20455;-83
2022/05/21 04:54:15;;;;;;;11.75;5.53;;;13.30;99.90;;;;;;4948638;28;20656;-82
2022/05/21 04:56:40;;;;;;;6.35;3.45;;;13.40;99.90;;;;;;4958798;28;20105;-82
2022/05/21 04:59:10;;;;;;;9.13;4.55;;;13.30;99.90;;;;;;4947786;28;20046;-82
2022/05/21 05:01:36;;;;;;;13.63;6.50;;;13.30;99.90;;;;;;4950578;28;20066;-83
2022/05/21 05:04:02;;;;;;;9.00;5.85;;;13.40;99.90;;;;;;4964524;28;20031;-82
2022/05/21 05:06:27;;;;;;;12.38;6.38;;;13.50;99.90;;;;;;4947581;28;20034;-83
2022/05/21 05:08:53;;;;;;;14.00;5.40;;;13.50;99.90;;;;;;4962875;28;20041;-83
2022/05/21 05:11:18;;;;;;;12.05;5.70;;;13.40;99.90;;;;;;4971812;28;20038;-82
2022/05/21 05:13:44;;;;;;;13.18;6.55;;;13.50;99.90;;;;;;4947761;28;20101;-82
2022/05/21 05:16:09;;;;;;;10.00;4.40;;;12.90;99.90;;;;;;4950139;28;20053;-83
2022/05/21 05:18:35;;;;;;;14.40;5.25;;;13.50;99.90;;;;;;4945741;28;20039;-83
2022/05/21 05:21:01;;;;;;;12.25;5.30;;;13.40;99.90;;;;;;4962483;28;20113;-83
2022/05/21 05:23:27;;;;;;;10.27;5.10;;;13.60;99.90;;;;;;4978539;28;20413;-82
2022/05/21 05:25:53;;;;;;;8.38;5.15;;;13.60;99.90;;;;;;4960242;28;20043;-83
2022/05/21 05:28:20;;;;;;;7.93;4.30;;;13.60;99.90;;;;;;4962041;28;20331;-83
2022/05/21 05:30:49;;;;;;;8.65;4.18;;;13.70;99.90;;;;;;4948339;28;20054;-82
2022/05/21 05:33:15;;;;;;;4.45;2.47;;;13.70;99.90;;;;;;4962084;28;20035;-83
2022/05/21 05:35:41;;;;;;;8.40;3.55;;;13.70;99.90;;;;;;4947935;28;20509;-82
2022/05/21 05:38:10;;;;;;;9.05;2.53;;;13.80;99.90;;;;;;4951334;28;20028;-83
2022/05/21 05:40:36;;;;;;;7.30;3.97;;;13.70;99.90;;;;;;4977367;28;20030;-83
2022/05/21 05:43:03;;;;;;;7.45;2.92;;;13.80;99.90;;;;;;4941280;28;20026;-83
2022/05/21 05:45:29;;;;;;;11.13;4.15;;;13.90;99.90;;;;;;4958324;28;20035;-83
2022/05/21 05:47:54;;;;;;;9.65;4.50;;;13.90;99.90;;;;;;4974614;28;20097;-82
2022/05/21 05:50:21;;;;;;;8.23;3.90;;;13.90;99.90;;;;;;4963216;28;20027;-82
2022/05/21 05:52:47;;;;;;;5.60;2.80;;;14.00;99.90;;;;;;4961184;28;20528;-82
2022/05/21 05:55:12;;;;;;;7.75;3.50;;;14.00;99.90;;;;;;4958408;28;20030;-82
2022/05/21 05:57:39;;;;;;;12.35;5.00;;;14.10;99.90;;;;;;4965563;28;20042;-82
2022/05/21 06:00:07;;;;;;;13.32;3.95;;;14.10;99.90;;;;;;4959760;28;20045;-82
2022/05/21 06:05:18;;;;;;;7.88;3.58;;;14.10;99.90;;;;;;4975266;28;20054;-82
2022/05/21 06:07:52;;;;;;;10.60;4.68;;;14.10;99.90;;;;;;4950032;28;20039;-82
2022/05/21 06:10:20;;;;;;;5.80;4.10;;;14.10;99.90;;;;;;4946146;28;20150;-82
2022/05/21 06:12:47;;;;;;;9.73;3.65;;;14.30;99.90;;;;;;4947538;28;20509;-82
2022/05/21 06:15:12;;;;;;;7.07;3.65;;;14.30;99.90;;;;;;4946542;28;20027;-82
2022/05/21 06:17:38;;;;;;;7.60;3.40;;;14.30;99.90;;;;;;4963978;28;20041;-82
2022/05/21 06:20:07;;;;;;;9.85;4.85;;;14.40;99.90;;;;;;4961319;28;20381;-82
2022/05/21 06:22:33;;;;;;;7.20;4.82;;;14.30;99.90;;;;;;4959208;28;20071;-82
2022/05/21 06:24:59;;;;;;;10.13;4.18;;;14.30;99.90;;;;;;4949108;28;20502;-82
2022/05/21 06:27:25;;;;;;;11.52;4.10;;;14.50;99.90;;;;;;4960438;28;20166;-82
2022/05/21 06:29:51;;;;;;;11.10;5.03;;;14.50;99.90;;;;;;4947893;28;20121;-82
2022/05/21 06:32:16;;;;;;;14.50;4.97;;;14.50;99.90;;;;;;4962531;28;20027;-82
2022/05/21 06:34:42;;;;;;;10.07;4.53;;;14.50;99.90;;;;;;4939994;28;20137;-83
2022/05/21 06:37:09;;;;;;;10.25;5.00;;;14.90;99.90;;;;;;4947678;28;20497;-82
2022/05/21 06:39:35;;;;;;;10.52;5.30;;;14.60;99.90;;;;;;4948962;28;20037;-82
2022/05/21 06:42:02;;;;;;;10.98;5.07;;;14.60;99.90;;;;;;4974975;28;20034;-82
2022/05/21 06:44:27;;;;;;;5.65;2.72;;;14.70;99.90;;;;;;4944461;28;20152;-83
2022/05/21 06:46:56;;;;;;;13.60;5.15;;;14.60;99.90;;;;;;4952599;28;20174;-82
2022/05/21 06:49:22;;;;;;;8.18;5.00;;;14.70;99.90;;;;;;4950298;28;20120;-83
2022/05/21 06:51:52;;;;;;;13.25;6.13;;;14.80;99.90;;;;;;4949138;28;20086;-82
2022/05/21 06:54:17;;;;;;;11.35;4.38;;;14.90;99.90;;;;;;4977347;28;20043;-82
2022/05/21 06:56:43;;;;;;;11.93;5.10;;;14.80;99.90;;;;;;4961522;28;20050;-83
2022/05/21 06:59:08;;;;;;;12.15;4.22;;;14.90;99.90;;;;;;4954107;28;20041;-82
2022/05/21 07:01:34;;;;;;;5.57;2.75;;;14.90;99.90;;;;;;4953625;28;20035;-82
2022/05/21 07:04:00;;;;;;;6.20;2.63;;;15.00;99.90;;;;;;4955288;28;20069;-83
2022/05/21 07:09:10;;;;;;;13.18;5.55;;;15.10;99.90;;;;;;4976682;28;20053;-82
2022/05/21 07:11:37;;;;;;;3.63;1.90;;;15.00;99.90;;;;;;4961808;28;20031;-82
2022/05/21 07:14:03;;;;;;;6.18;3.20;;;15.10;99.90;;;;;;4960113;28;20121;-82
2022/05/21 07:16:28;;;;;;;9.98;4.07;;;15.10;99.90;;;;;;4934906;28;20035;-83
2022/05/21 07:18:54;;;;;;;8.45;4.55;;;15.10;99.90;;;;;;4947501;28;20081;-83
2022/05/21 07:21:19;;;;;;;6.30;2.50;;;15.10;99.90;;;;;;4965865;28;20110;-82
2022/05/21 07:23:46;;;;;;;14.55;5.72;;;15.10;99.90;;;;;;4952375;28;20115;-82
2022/05/21 07:26:12;;;;;;;14.43;5.57;;;14.60;99.90;;;;;;4962656;28;20089;-82
2022/05/21 07:28:37;;;;;;;6.60;3.97;;;15.10;99.90;;;;;;4976367;28;20027;-83
2022/05/21 07:31:03;;;;;;;2.47;2.28;;;15.10;99.90;;;;;;4954324;28;20516;-83
2022/05/21 07:33:29;;;;;;;11.57;4.68;;;15.60;99.90;;;;;;4945985;28;20030;-83
2022/05/21 07:35:54;;;;;;;14.10;4.47;;;15.40;99.90;;;;;;4954167;28;20490;-83
2022/05/21 07:38:20;;;;;;;7.07;3.38;;;15.10;99.90;;;;;;4958414;28;20038;-83
2022/05/21 07:40:46;;;;;;;8.93;4.50;;;15.30;99.90;;;;;;4946250;28;20081;-83
2022/05/21 07:43:30;;;;;;;10.82;4.95;;;15.00;99.90;;;;;;4946345;28;20035;-83
2022/05/21 07:45:56;;;;;;;11.48;4.60;;;15.10;99.90;;;;;;4962815;28;20042;-82
2022/05/21 07:48:22;;;;;;;6.72;3.45;;;14.50;99.90;;;;;;4948141;28;20031;-83
2022/05/21 07:50:59;;;;;;;6.53;4.20;;;15.10;99.90;;;;;;4979507;28;20050;-83
2022/05/21 07:53:27;;;;;;;6.57;4.45;;;15.10;99.90;;;;;;4950577;28;20459;-82
2022/05/21 07:55:54;;;;;;;7.85;4.60;;;15.10;99.90;;;;;;4947785;28;20062;-82
2022/05/21 07:58:20;;;;;;;9.73;5.25;;;15.30;99.90;;;;;;4974678;28;20073;-83
2022/05/21 08:00:46;;;;;;;8.38;4.68;;;15.10;99.90;;;;;;4960132;28;20035;-82
2022/05/21 08:03:11;;;;;;;10.52;6.45;;;15.10;99.90;;;;;;4945914;28;20097;-83
2022/05/21 08:05:38;;;;;;;5.07;3.22;;;15.20;99.90;;;;;;4948050;28;20049;-83
2022/05/21 08:08:04;;;;;;;4.65;3.40;;;15.20;99.90;;;;;;4976598;28;20084;-83
2022/05/21 08:10:29;;;;;;;7.85;4.55;;;15.20;99.90;;;;;;4947607;28;20046;-83
2022/05/21 08:12:56;;;;;;;8.25;4.72;;;15.20;99.90;;;;;;4946255;28;20031;-83
2022/05/21 08:15:22;;;;;;;13.73;7.57;;;15.20;99.90;;;;;;4950199;28;20469;-81
2022/05/21 08:17:47;;;;;;;7.55;5.30;;;15.10;99.90;;;;;;4964977;28;20034;-83
2022/05/21 08:20:13;;;;;;;14.93;5.57;;;15.40;99.90;;;;;;4960401;28;20108;-82
2022/05/21 08:28:07;;;;;;;8.52;4.40;;;15.20;99.90;;;;;;4966752;28;20037;-82
2022/05/21 08:30:33;;;;;;;7.88;3.22;;;15.70;99.90;;;;;;4951481;28;20030;-84
2022/05/21 08:33:04;;;;;;;11.57;5.80;;;15.80;99.90;;;;;;4959757;28;20077;-83
2022/05/21 08:35:30;;;;;;;13.10;5.90;;;15.60;99.90;;;;;;4965738;28;20031;-83
2022/05/21 08:37:55;;;;;;;7.45;3.92;;;15.60;99.90;;;;;;4976118;28;20430;-83
2022/05/21 08:40:22;;;;;;;15.85;6.68;;;15.90;99.90;;;;;;4959574;28;20043;-83
2022/05/21 08:42:55;;;;;;;8.80;4.75;;;16.10;99.90;;;;;;4961643;28;20569;-83
2022/05/21 08:45:26;;;;;;;10.57;5.03;;;16.20;99.90;;;;;;4951072;28;20022;-83
2022/05/21 08:48:02;;;;;;;11.02;4.82;;;16.30;99.90;;;;;;4965204;28;20432;-83
2022/05/21 08:50:32;;;;;;;22.67;6.95;;;16.30;99.90;;;;;;4947827;28;20064;-83
2022/05/21 08:53:06;;;;;;;17.65;6.45;;;16.50;99.90;;;;;;4950155;28;20058;-83
2022/05/21 08:55:42;;;;;;;9.07;5.32;;;17.10;99.90;;;;;;4962725;28;20037;-83
2022/05/21 08:58:32;;;;;;;14.82;6.43;;;17.50;99.90;;;;;;4975506;28;20035;-82
2022/05/21 09:00:57;;;;;;;17.63;6.28;;;17.30;99.90;;;;;;4988789;28;20038;-83
2022/05/21 09:03:24;;;;;;;6.32;3.15;;;17.70;99.90;;;;;;4950573;28;20037;-83
2022/05/21 09:05:58;;;;;;;12.60;6.55;;;17.70;99.90;;;;;;4950073;28;20043;-82
2022/05/21 09:08:45;;;;;;;9.75;6.57;;;17.70;99.90;;;;;;4976190;28;20077;-83
2022/05/21 09:11:20;;;;;;;13.23;5.30;;;17.80;99.90;;;;;;4976139;28;20038;-82
2022/05/21 09:13:59;;;;;;;15.40;5.03;;;17.50;99.90;;;;;;4951015;28;20035;-82
2022/05/21 09:19:09;;;;;;;14.88;6.78;;;17.40;99.90;;;;;;4977071;28;20496;-82
2022/05/21 09:21:39;;;;;;;11.82;5.53;;;17.40;99.90;;;;;;4972244;28;20039;-83
2022/05/21 09:24:05;;;;;;;13.95;5.63;;;17.40;99.90;;;;;;4970101;28;20069;-83
2022/05/21 09:26:52;;;;;;;13.07;8.10;;;17.40;99.90;;;;;;4949549;28;20406;-83
2022/05/21 09:29:21;;;;;;;14.48;5.15;;;17.60;99.90;;;;;;4966976;28;20113;-83
2022/05/21 09:31:47;;;;;;;14.68;7.20;;;17.80;99.90;;;;;;4970567;28;20043;-83
2022/05/21 09:34:30;;;;;;;10.68;6.53;;;17.90;99.90;;;;;;4962338;28;20034;-83
2022/05/21 09:36:57;;;;;;;14.52;7.07;;;18.10;99.90;;;;;;4954192;28;20065;-83
2022/05/21 09:39:38;;;;;;;15.05;6.65;;;17.90;99.90;;;;;;4955042;28;20371;-83
2022/05/21 09:45:22;;;;;;;15.48;6.43;;;18.10;99.90;;;;;;4948773;28;20038;-83
2022/05/21 09:45:22;;;;;;;11.52;5.63;;;18.10;99.90;;;;;;4972144;28;20057;-83
2022/05/21 09:48:11;;;;;;;13.77;6.20;;;18.20;99.90;;;;;;4977706;28;20101;-83
2022/05/21 09:50:57;;;;;;;15.85;6.70;;;18.20;99.90;;;;;;4979477;28;20082;-83
2022/05/21 09:53:27;;;;;;;15.98;6.95;;;18.30;99.90;;;;;;4975090;28;20026;-83
2022/05/21 09:56:04;;;;;;;15.90;7.55;;;18.60;99.90;;;;;;4966579;28;20540;-83
2022/05/21 09:58:32;;;;;;;14.52;6.38;;;18.70;99.90;;;;;;4977606;28;20402;-83
2022/05/21 10:00:58;;;;;;;13.95;6.60;;;18.60;99.90;;;;;;4960859;28;20047;-83
2022/05/21 10:03:39;;;;;;;10.00;5.65;;;18.70;99.90;;;;;;4957474;28;20046;-83
2022/05/21 10:06:34;;;;;;;14.73;5.72;;;19.10;99.90;;;;;;4970718;28;20129;-83
2022/05/21 10:12:27;;;;;;;12.05;6.05;;;19.60;99.90;;;;;;4963935;28;20207;-83
2022/05/21 10:15:05;;;;;;;11.00;5.93;;;20.00;99.90;;;;;;4933652;28;20088;-83
2022/05/21 10:17:48;;;;;;;9.80;4.95;;;20.50;99.90;;;;;;4944201;28;20030;-84
2022/05/21 10:20:20;;;;;;;7.45;4.03;;;20.80;99.90;;;;;;4959774;28;20049;-83
2022/05/21 10:23:03;;;;;;;8.18;3.70;;;21.00;98.90;;;;;;4959711;28;20068;-84
2022/05/21 10:25:45;;;;;;;13.30;7.38;;;21.40;97.30;;;;;;4958922;28;20034;-84
2022/05/21 10:28:26;;;;;;;12.18;6.18;;;21.70;98.70;;;;;;4964369;28;20109;-84
2022/05/21 10:31:06;;;;;;;11.35;3.35;;;22.40;99.80;;;;;;4962489;28;20038;-84
2022/05/21 10:34:10;;;;;;;9.10;4.45;;;22.20;94.90;;;;;;4975709;28;20133;-83
2022/05/21 10:37:10;;;;;;;11.27;4.82;;;22.20;96.30;;;;;;4970377;28;20030;-83
2022/05/21 10:40:07;;;;;;;8.57;4.60;;;22.50;94.10;;;;;;4972625;28;20027;-84
2022/05/21 10:42:42;;;;;;;4.63;2.30;;;23.10;94.10;;;;;;4963813;28;20023;-84
2022/05/21 10:45:28;;;;;;;9.75;5.22;;;22.40;92.10;;;;;;4969847;28;20035;-84
2022/05/21 10:48:25;;;;;;;11.18;4.45;;;22.40;91.90;;;;;;4953806;28;20093;-83
2022/05/21 10:50:54;;;;;;;9.25;5.20;;;22.50;91.40;;;;;;4988384;28;20035;-83
2022/05/21 10:53:38;;;;;;;10.45;4.32;;;23.40;95.40;;;;;;4959022;28;20436;-84
2022/05/21 10:56:15;;;;;;;10.70;5.68;;;24.10;93.40;;;;;;4981496;28;20027;-84
2022/05/21 10:58:45;;;;;;;11.38;4.03;;;24.60;95.00;;;;;;4970377;28;21083;-82
2022/05/21 11:01:41;;;;;;;11.27;5.20;;;24.50;91.60;;;;;;4963106;28;20587;-84
2022/05/21 11:04:29;;;;;;;7.18;3.70;;;24.80;93.20;;;;;;4972298;28;20072;-84
2022/05/21 11:07:13;;;;;;;9.73;2.95;;;24.40;89.60;;;;;;4964702;28;20030;-84
2022/05/21 11:10:02;;;;;;;8.52;4.70;;;24.60;90.00;;;;;;4985055;28;20031;-84
2022/05/21 11:12:34;;;;;;;10.70;4.55;;;24.70;90.00;;;;;;4969675;28;20034;-84
2022/05/21 11:15:09;;;;;;;9.40;4.68;;;24.50;83.80;;;;;;4994267;28;20027;-84
2022/05/21 11:17:51;;;;;;;9.20;3.73;;;23.80;86.90;;;;;;4947777;28;20521;-84
2022/05/21 11:20:22;;;;;;;9.23;3.80;;;24.10;90.50;;;;;;4964399;28;20270;-84
2022/05/21 11:23:01;;;;;;;11.45;4.00;;;24.10;89.70;;;;;;4971970;28;20089;-84
2022/05/21 11:25:48;;;;;;;11.57;4.30;;;23.90;88.10;;;;;;4974266;28;20039;-84
2022/05/21 11:28:44;;;;;;;7.20;4.20;;;23.60;89.50;;;;;;4989675;28;20061;-85
2022/05/21 11:37:19;;;;;;;8.50;3.92;;;23.50;89.00;;;;;;4962299;28;20701;-84
2022/05/21 11:39:35;;;;;;;9.95;4.18;;;22.30;88.60;;;;;;4960740;28;20038;-84
2022/05/21 11:42:14;;;;;;;7.28;3.80;;;22.40;86.50;;;;;;4961200;28;20026;-84
2022/05/21 11:45:04;;;;;;;8.48;3.80;;;22.60;88.50;;;;;;4964220;28;20375;-83
2022/05/21 11:47:39;;;;;;;7.63;4.40;;;22.70;87.80;;;;;;4952791;28;20034;-84
2022/05/21 11:50:20;;;;;;;9.55;4.88;;;22.90;88.00;;;;;;4978053;28;20522;-84
2022/05/21 11:52:53;;;;;;;8.65;3.60;;;22.80;87.20;;;;;;4968597;28;20027;-84
2022/05/21 11:55:24;;;;;;;5.25;3.47;;;22.90;86.60;;;;;;4977428;28;20031;-84
2022/05/21 11:57:56;;;;;;;18.05;5.60;;;22.90;84.10;;;;;;4943920;28;20053;-84
2022/05/21 12:00:21;;;;;;;6.60;3.50;;;22.60;84.80;;;;;;4958479;28;20126;-84
2022/05/21 12:03:05;;;;;;;11.50;4.45;;;23.00;84.60;;;;;;4989003;28;20459;-84
2022/05/21 12:05:46;;;;;;;10.32;4.75;;;22.20;85.50;;;;;;4968671;28;20492;-84
2022/05/21 12:08:16;;;;;;;9.93;4.32;;;22.20;85.40;;;;;;4976504;28;20089;-84
2022/05/21 12:11:13;;;;;;;8.55;4.07;;;21.80;85.20;;;;;;4961262;28;20492;-84
2022/05/21 12:14:00;;;;;;;10.73;4.47;;;21.70;85.70;;;;;;4982784;28;20188;-84
2022/05/21 12:16:26;;;;;;;8.38;3.92;;;21.80;85.80;;;;;;4951716;28;20048;-84
2022/05/21 12:18:53;;;;;;;10.52;4.10;;;22.20;87.10;;;;;;4977156;28;20061;-83
2022/05/21 12:21:27;;;;;;;8.98;4.38;;;22.10;86.30;;;;;;4962390;28;20023;-84
2022/05/21 12:23:56;;;;;;;7.07;3.88;;;22.20;85.60;;;;;;4981338;28;20057;-84
2022/05/21 12:26:22;;;;;;;6.05;3.22;;;22.20;85.70;;;;;;4983049;28;20043;-84
2022/05/21 12:28:56;;;;;;;10.68;3.65;;;22.40;83.20;;;;;;4960876;28;20119;-84
2022/05/21 12:31:29;;;;;;;5.90;2.95;;;22.40;86.30;;;;;;4980737;28;20634;-84
2022/05/21 12:34:13;;;;;;;8.35;3.58;;;22.40;84.30;;;;;;4966140;28;20042;-84
2022/05/21 12:37:06;;;;;;;9.98;3.85;;;22.30;83.20;;;;;;4995594;28;20038;-84
2022/05/21 12:39:43;;;;;;;7.57;3.83;;;22.10;86.40;;;;;;4997726;28;20481;-84
2022/05/21 12:42:19;;;;;;;10.43;3.97;;;22.70;87.20;;;;;;4995363;28;20037;-84
2022/05/21 12:44:47;;;;;;;8.90;3.45;;;22.80;83.20;;;;;;4961569;28;20054;-84
2022/05/21 12:47:33;;;;;;;13.05;4.22;;;23.00;84.20;;;;;;4937627;28;20030;-84
2022/05/21 12:50:03;;;;;;;7.35;2.88;;;22.90;83.10;;;;;;4963775;28;20045;-85
2022/05/21 12:52:41;;;;;;;8.25;3.13;;;23.20;82.70;;;;;;4948822;28;20022;-84
2022/05/21 12:55:21;;;;;;;6.20;3.38;;;22.80;81.80;;;;;;4961601;28;20120;-84
2022/05/21 12:57:47;;;;;;;7.72;3.58;;;22.40;81.20;;;;;;4982886;28;20351;-84
2022/05/21 13:00:19;;;;;;;8.65;3.72;;;22.40;82.60;;;;;;4968396;28;20034;-84
2022/05/21 13:02:53;;;;;;;5.85;3.70;;;22.40;82.00;;;;;;4933284;28;20118;-84
2022/05/21 13:05:26;;;;;;;9.73;3.55;;;22.40;83.80;;;;;;4974604;28;20035;-84
2022/05/21 13:07:53;;;;;;;5.63;3.58;;;22.60;83.10;;;;;;4949192;28;20038;-84
2022/05/21 13:10:22;;;;;;;8.35;3.13;;;22.50;82.20;;;;;;4952084;28;20078;-84
2022/05/21 13:13:11;;;;;;;6.90;3.40;;;22.60;82.00;;;;;;4951731;28;20063;-84
2022/05/21 13:15:41;;;;;;;11.15;3.38;;;23.20;84.50;;;;;;4969315;28;20455;-85
2022/05/21 13:18:33;;;;;;;8.77;3.55;;;22.80;82.70;;;;;;4941833;28;20050;-85
2022/05/21 13:21:04;;;;;;;12.43;3.58;;;22.90;82.20;;;;;;4961696;28;20027;-85
2022/05/21 13:23:39;;;;;;;6.07;3.08;;;22.90;81.00;;;;;;4976916;28;20117;-85
2022/05/21 13:26:04;;;;;;;7.00;3.70;;;23.50;84.00;;;;;;4989325;28;20500;-85
2022/05/21 13:28:31;;;;;;;6.57;3.30;;;23.70;80.80;;;;;;4976222;28;20027;-84
2022/05/21 13:30:56;;;;;;;7.25;3.00;;;23.90;82.20;;;;;;4947831;28;20078;-85
2022/05/21 13:33:36;;;;;;;6.00;3.13;;;24.00;81.40;;;;;;4963647;28;20526;-85